createdAt,value
2022-09-18T00:00:30.777Z,45.29
2022-09-18T00:01:02.167Z,45.36
2022-09-18T00:01:33.678Z,45.48
2022-09-18T00:02:05.216Z,45.54
2022-09-18T00:02:36.789Z,45.13
2022-09-18T00:03:08.287Z,45.25
2022-09-18T00:03:39.699Z,45.28
2022-09-18T00:04:11.079Z,45.12
2022-09-18T00:04:42.545Z,45.16
2022-09-18T00:05:13.943Z,45.63
2022-09-18T00:05:45.328Z,45.60
2022-09-18T00:06:16.712Z,45.22
2022-09-18T00:06:48.096Z,45.62
2022-09-18T00:07:19.496Z,45.31
2022-09-18T00:07:50.880Z,45.44
2022-09-18T00:08:22.278Z,45.46
2022-09-18T00:08:53.668Z,45.31
2022-09-18T00:09:25.066Z,45.29
2022-09-18T00:09:56.505Z,45.29
2022-09-18T00:10:27.883Z,45.04
2022-09-18T00:10:59.268Z,45.39
2022-09-18T00:11:30.664Z,45.49
2022-09-18T00:12:02.054Z,45.48
2022-09-18T00:12:33.450Z,45.30
2022-09-18T00:13:04.834Z,45.42
2022-09-18T00:13:36.211Z,45.12
2022-09-18T00:14:07.616Z,45.51
2022-09-18T00:14:39.000Z,45.35
2022-09-18T00:15:10.403Z,45.56
2022-09-18T00:15:41.847Z,45.50
2022-09-18T00:16:13.356Z,45.40
2022-09-18T00:16:44.794Z,45.61
2022-09-18T00:17:16.143Z,45.40
2022-09-18T00:17:47.527Z,45.04
2022-09-18T00:18:18.906Z,45.61
2022-09-18T00:18:50.491Z,45.43
2022-09-18T00:19:21.908Z,45.29
2022-09-18T00:19:53.312Z,45.33
2022-09-18T00:20:24.852Z,45.18
2022-09-18T00:20:56.240Z,45.44
2022-09-18T00:21:27.640Z,45.22
2022-09-18T00:21:59.015Z,45.36
2022-09-18T00:22:30.423Z,45.12
2022-09-18T00:23:01.803Z,45.25
2022-09-18T00:23:33.222Z,44.78
2022-09-18T00:24:04.602Z,45.46
2022-09-18T00:24:36.000Z,45.65
2022-09-18T00:25:07.388Z,45.38
2022-09-18T00:25:38.887Z,45.32
2022-09-18T00:26:10.268Z,45.11
2022-09-18T00:26:41.667Z,45.25
2022-09-18T00:27:13.076Z,45.50
2022-09-18T00:27:44.456Z,45.45
2022-09-18T00:28:15.842Z,45.09
2022-09-18T00:28:47.233Z,45.65
2022-09-18T00:29:18.632Z,45.91
2022-09-18T00:29:50.022Z,45.27
2022-09-18T00:30:21.412Z,45.39
2022-09-18T00:30:52.854Z,45.05
2022-09-18T00:31:24.385Z,45.52
2022-09-18T00:31:55.831Z,45.62
2022-09-18T00:32:27.208Z,45.34
2022-09-18T00:32:58.615Z,45.57
2022-09-18T00:33:30.001Z,45.53
2022-09-18T00:34:01.387Z,45.49
2022-09-18T00:34:32.780Z,45.29
2022-09-18T00:35:04.186Z,45.35
2022-09-18T00:35:35.582Z,45.19
2022-09-18T00:36:06.992Z,45.35
2022-09-18T00:36:38.407Z,45.60
2022-09-18T00:37:09.811Z,45.10
2022-09-18T00:37:41.220Z,45.42
2022-09-18T00:38:12.610Z,45.37
2022-09-18T00:38:44.007Z,45.08
2022-09-18T00:39:15.416Z,45.05
2022-09-18T00:39:46.795Z,45.20
2022-09-18T00:40:18.302Z,45.36
2022-09-18T00:40:49.868Z,45.29
2022-09-18T00:41:21.276Z,45.73
2022-09-18T00:41:52.650Z,45.46
2022-09-18T00:42:24.036Z,45.69
2022-09-18T00:42:55.485Z,45.54
2022-09-18T00:43:26.902Z,45.30
2022-09-18T00:43:58.305Z,45.67
2022-09-18T00:44:29.717Z,45.62
2022-09-18T00:45:01.095Z,45.33
2022-09-18T00:45:32.501Z,45.28
2022-09-18T00:46:03.913Z,45.13
2022-09-18T00:46:35.364Z,45.23
2022-09-18T00:47:06.812Z,45.13
2022-09-18T00:47:38.221Z,45.41
2022-09-18T00:48:09.618Z,45.47
2022-09-18T00:48:41.002Z,45.56
2022-09-18T00:49:12.398Z,45.59
2022-09-18T00:49:43.781Z,45.50
2022-09-18T00:50:15.180Z,45.47
2022-09-18T00:50:46.579Z,45.64
2022-09-18T00:51:17.974Z,45.43
2022-09-18T00:51:49.372Z,45.46
2022-09-18T00:52:20.775Z,45.51
2022-09-18T00:52:52.155Z,45.44
2022-09-18T00:53:23.536Z,45.33
2022-09-18T00:53:54.931Z,45.20
2022-09-18T00:54:26.311Z,45.48
2022-09-18T00:54:57.692Z,45.56
2022-09-18T00:55:29.074Z,45.56
2022-09-18T00:56:00.451Z,45.18
2022-09-18T00:56:31.839Z,45.10
2022-09-18T00:57:03.374Z,45.45
2022-09-18T00:57:34.766Z,45.48
2022-09-18T00:58:06.167Z,45.73
2022-09-18T00:58:37.550Z,45.33
2022-09-18T00:59:08.941Z,45.37
2022-09-18T00:59:40.318Z,45.42
2022-09-18T01:00:11.695Z,45.76
2022-09-18T01:00:43.113Z,45.35
2022-09-18T01:01:14.601Z,45.20
2022-09-18T01:01:46.108Z,45.51
2022-09-18T01:02:17.646Z,45.18
2022-09-18T01:02:49.051Z,45.80
2022-09-18T01:03:20.431Z,45.86
2022-09-18T01:03:51.837Z,45.47
2022-09-18T01:04:23.258Z,45.64
2022-09-18T01:04:54.657Z,45.21
2022-09-18T01:05:26.035Z,45.84
2022-09-18T01:05:57.429Z,45.59
2022-09-18T01:06:28.817Z,45.17
2022-09-18T01:07:00.199Z,45.28
2022-09-18T01:07:31.665Z,45.24
2022-09-18T01:08:03.043Z,45.36
2022-09-18T01:08:34.491Z,45.62
2022-09-18T01:09:05.880Z,45.69
2022-09-18T01:09:37.278Z,45.87
2022-09-18T01:10:08.664Z,45.61
2022-09-18T01:10:40.067Z,45.57
2022-09-18T01:11:11.473Z,45.89
2022-09-18T01:11:42.855Z,45.83
2022-09-18T01:12:14.237Z,45.61
2022-09-18T01:12:45.728Z,45.63
2022-09-18T01:13:17.127Z,45.28
2022-09-18T01:13:48.545Z,45.30
2022-09-18T01:14:19.961Z,45.81
2022-09-18T01:14:51.360Z,45.28
2022-09-18T01:15:22.745Z,45.59
2022-09-18T01:15:54.188Z,45.32
2022-09-18T01:16:25.663Z,45.54
2022-09-18T01:16:57.166Z,45.56
2022-09-18T01:17:28.563Z,45.68
2022-09-18T01:18:00.023Z,45.56
2022-09-18T01:18:31.411Z,45.89
2022-09-18T01:19:02.804Z,45.89
2022-09-18T01:19:34.208Z,45.62
2022-09-18T01:20:05.591Z,45.80
2022-09-18T01:20:36.993Z,45.79
2022-09-18T01:21:08.373Z,45.38
2022-09-18T01:21:39.770Z,45.55
2022-09-18T01:22:11.171Z,45.56
2022-09-18T01:22:42.547Z,45.67
2022-09-18T01:23:14.082Z,45.25
2022-09-18T01:23:45.481Z,45.67
2022-09-18T01:24:16.886Z,45.65
2022-09-18T01:24:48.282Z,45.34
2022-09-18T01:25:19.659Z,45.59
2022-09-18T01:25:51.048Z,45.49
2022-09-18T01:26:22.428Z,45.54
2022-09-18T01:26:53.806Z,45.38
2022-09-18T01:27:25.193Z,45.77
2022-09-18T01:27:56.610Z,45.79
2022-09-18T01:28:28.006Z,45.25
2022-09-18T01:28:59.415Z,45.49
2022-09-18T01:29:30.795Z,45.57
2022-09-18T01:30:02.170Z,45.52
2022-09-18T01:30:33.548Z,45.55
2022-09-18T01:31:05.002Z,45.36
2022-09-18T01:31:36.497Z,45.34
2022-09-18T01:32:07.934Z,45.47
2022-09-18T01:32:39.311Z,45.54
2022-09-18T01:33:10.690Z,45.68
2022-09-18T01:33:42.187Z,45.52
2022-09-18T01:34:13.583Z,45.56
2022-09-18T01:34:44.969Z,45.70
2022-09-18T01:35:40.079Z,45.47
2022-09-18T01:36:10.792Z,45.67
2022-09-18T01:36:42.187Z,45.40
2022-09-18T01:37:13.565Z,45.77
2022-09-18T01:37:44.943Z,45.53
2022-09-18T01:38:16.322Z,45.66
2022-09-18T01:38:47.709Z,45.75
2022-09-18T01:39:19.095Z,45.57
2022-09-18T01:39:50.499Z,45.40
2022-09-18T01:40:21.965Z,45.29
2022-09-18T01:40:53.401Z,45.63
2022-09-18T01:41:24.799Z,45.57
2022-09-18T01:41:56.184Z,45.44
2022-09-18T01:42:27.582Z,45.94
2022-09-18T01:42:58.962Z,45.60
2022-09-18T01:43:30.491Z,45.35
2022-09-18T01:44:01.868Z,45.94
2022-09-18T01:44:33.242Z,45.65
2022-09-18T01:45:04.656Z,45.73
2022-09-18T01:45:36.054Z,45.83
2022-09-18T01:46:07.509Z,45.91
2022-09-18T01:46:39.011Z,45.52
2022-09-18T01:47:10.465Z,45.58
2022-09-18T01:47:41.869Z,45.67
2022-09-18T01:48:13.248Z,45.87
2022-09-18T01:48:44.745Z,45.51
2022-09-18T01:49:16.147Z,45.36
2022-09-18T01:49:47.549Z,45.67
2022-09-18T01:50:18.956Z,45.64
2022-09-18T01:50:50.353Z,45.70
2022-09-18T01:51:21.740Z,45.55
2022-09-18T01:51:53.130Z,45.97
2022-09-18T01:52:24.531Z,45.72
2022-09-18T01:52:55.910Z,46.08
2022-09-18T01:53:27.292Z,45.86
2022-09-18T01:53:58.803Z,45.77
2022-09-18T01:54:30.348Z,45.75
2022-09-18T01:55:01.729Z,45.64
2022-09-18T01:55:33.136Z,45.41
2022-09-18T01:56:04.530Z,45.69
2022-09-18T01:56:35.927Z,45.74
2022-09-18T01:57:07.307Z,46.08
2022-09-18T01:57:38.688Z,45.46
2022-09-18T01:58:10.091Z,45.47
2022-09-18T01:58:41.487Z,45.90
2022-09-18T01:59:12.944Z,45.95
2022-09-18T01:59:44.330Z,45.99
2022-09-18T02:00:15.715Z,45.72
2022-09-18T02:00:47.109Z,45.95
2022-09-18T02:01:18.540Z,45.76
2022-09-18T02:01:50.082Z,45.47
2022-09-18T02:02:21.620Z,45.91
2022-09-18T02:02:53.105Z,45.81
2022-09-18T02:03:24.514Z,45.55
2022-09-18T02:03:55.891Z,46.03
2022-09-18T02:04:27.341Z,45.73
2022-09-18T02:04:58.749Z,45.41
2022-09-18T02:05:30.131Z,45.97
2022-09-18T02:06:01.531Z,45.71
2022-09-18T02:06:32.915Z,46.09
2022-09-18T02:07:04.294Z,45.54
2022-09-18T02:07:35.673Z,45.52
2022-09-18T02:08:07.050Z,45.77
2022-09-18T02:08:38.450Z,45.74
2022-09-18T02:09:09.931Z,45.63
2022-09-18T02:09:41.311Z,45.86
2022-09-18T02:10:12.692Z,46.06
2022-09-18T02:10:44.091Z,45.90
2022-09-18T02:11:15.472Z,45.88
2022-09-18T02:11:46.856Z,46.00
2022-09-18T02:12:18.235Z,45.55
2022-09-18T02:12:49.631Z,46.33
2022-09-18T02:13:21.017Z,46.19
2022-09-18T02:13:52.399Z,45.52
2022-09-18T02:14:23.836Z,45.68
2022-09-18T02:14:55.249Z,45.96
2022-09-18T02:15:26.640Z,46.10
2022-09-18T02:15:58.078Z,45.79
2022-09-18T02:16:29.583Z,45.54
2022-09-18T02:17:01.024Z,45.85
2022-09-18T02:17:32.415Z,45.72
2022-09-18T02:18:03.819Z,45.51
2022-09-18T02:18:35.305Z,46.09
2022-09-18T02:19:06.825Z,45.63
2022-09-18T02:19:38.212Z,46.21
2022-09-18T02:20:09.626Z,46.11
2022-09-18T02:20:41.008Z,46.09
2022-09-18T02:21:12.404Z,46.04
2022-09-18T02:21:43.787Z,45.85
2022-09-18T02:22:15.167Z,46.00
2022-09-18T02:22:46.555Z,46.14
2022-09-18T02:23:17.959Z,45.91
2022-09-18T02:23:49.463Z,46.20
2022-09-18T02:24:20.860Z,46.23
2022-09-18T02:24:52.254Z,45.94
2022-09-18T02:25:23.644Z,46.05
2022-09-18T02:25:55.121Z,45.82
2022-09-18T02:26:26.507Z,45.83
2022-09-18T02:26:57.912Z,45.83
2022-09-18T02:27:29.315Z,45.74
2022-09-18T02:28:00.700Z,45.91
2022-09-18T02:28:32.111Z,45.86
2022-09-18T02:29:03.622Z,45.54
2022-09-18T02:29:35.052Z,45.64
2022-09-18T02:30:06.435Z,45.74
2022-09-18T02:30:37.846Z,45.62
2022-09-18T02:31:09.297Z,45.95
2022-09-18T02:31:40.775Z,45.91
2022-09-18T02:32:12.208Z,46.48
2022-09-18T02:32:43.589Z,45.88
2022-09-18T02:33:14.995Z,45.57
2022-09-18T02:33:46.379Z,46.15
2022-09-18T02:34:17.871Z,46.10
2022-09-18T02:34:49.249Z,46.10
2022-09-18T02:35:20.650Z,46.05
2022-09-18T02:35:52.050Z,45.64
2022-09-18T02:36:23.446Z,45.50
2022-09-18T02:36:54.886Z,45.52
2022-09-18T02:37:26.268Z,45.64
2022-09-18T02:37:57.663Z,45.95
2022-09-18T02:38:29.043Z,45.84
2022-09-18T02:39:00.509Z,45.66
2022-09-18T02:39:32.034Z,46.02
2022-09-18T02:40:03.504Z,46.14
2022-09-18T02:40:35.011Z,45.90
2022-09-18T02:41:06.474Z,46.05
2022-09-18T02:41:37.852Z,45.71
2022-09-18T02:42:09.260Z,45.88
2022-09-18T02:42:40.648Z,46.18
2022-09-18T02:43:12.043Z,45.91
2022-09-18T02:43:43.463Z,46.12
2022-09-18T02:44:14.855Z,46.17
2022-09-18T02:44:46.500Z,45.78
2022-09-18T02:45:17.900Z,46.29
2022-09-18T02:45:49.309Z,45.90
2022-09-18T02:46:20.810Z,46.28
2022-09-18T02:46:52.297Z,45.94
2022-09-18T02:47:23.756Z,45.87
2022-09-18T02:47:55.175Z,45.80
2022-09-18T02:48:26.582Z,45.84
2022-09-18T02:48:57.969Z,46.05
2022-09-18T02:49:29.352Z,45.81
2022-09-18T02:50:00.890Z,46.05
2022-09-18T02:50:32.332Z,45.52
2022-09-18T02:51:03.740Z,45.97
2022-09-18T02:51:35.128Z,46.23
2022-09-18T02:52:06.519Z,45.73
2022-09-18T02:52:37.899Z,46.19
2022-09-18T02:53:09.334Z,45.49
2022-09-18T02:53:40.711Z,45.91
2022-09-18T02:54:12.091Z,45.99
2022-09-18T02:54:43.496Z,45.84
2022-09-18T02:55:14.929Z,46.25
2022-09-18T02:55:46.314Z,46.13
2022-09-18T02:56:17.712Z,46.28
2022-09-18T02:56:49.086Z,46.00
2022-09-18T02:57:20.484Z,45.84
2022-09-18T02:57:51.868Z,46.16
2022-09-18T02:58:23.275Z,45.71
2022-09-18T02:58:54.656Z,45.58
2022-09-18T02:59:26.054Z,46.06
2022-09-18T02:59:57.437Z,46.17
2022-09-18T03:00:28.871Z,46.05
2022-09-18T03:01:00.267Z,46.01
2022-09-18T03:01:31.741Z,46.02
2022-09-18T03:02:03.277Z,46.24
2022-09-18T03:02:34.891Z,45.75
2022-09-18T03:03:06.318Z,46.00
2022-09-18T03:03:37.696Z,46.21
2022-09-18T03:04:09.079Z,45.75
2022-09-18T03:04:40.469Z,46.34
2022-09-18T03:05:11.877Z,45.78
2022-09-18T03:05:43.356Z,45.80
2022-09-18T03:06:14.741Z,45.89
2022-09-18T03:06:46.120Z,45.79
2022-09-18T03:07:17.502Z,46.09
2022-09-18T03:07:48.907Z,45.99
2022-09-18T03:08:20.303Z,45.96
2022-09-18T03:08:51.687Z,45.91
2022-09-18T03:09:23.064Z,45.81
2022-09-18T03:09:54.466Z,45.73
2022-09-18T03:10:25.846Z,45.83
2022-09-18T03:10:57.324Z,45.78
2022-09-18T03:11:28.728Z,45.73
2022-09-18T03:12:00.150Z,46.05
2022-09-18T03:12:31.532Z,45.96
2022-09-18T03:13:02.944Z,46.17
2022-09-18T03:13:34.337Z,46.21
2022-09-18T03:14:05.738Z,45.99
2022-09-18T03:14:37.123Z,46.01
2022-09-18T03:15:08.512Z,45.90
2022-09-18T03:15:39.896Z,45.86
2022-09-18T03:16:11.428Z,46.18
2022-09-18T03:16:42.830Z,46.18
2022-09-18T03:17:14.232Z,46.05
2022-09-18T03:17:45.635Z,46.21
2022-09-18T03:18:17.015Z,46.06
2022-09-18T03:18:48.437Z,45.88
2022-09-18T03:19:19.845Z,46.27
2022-09-18T03:19:51.251Z,46.04
2022-09-18T03:20:22.628Z,45.75
2022-09-18T03:20:54.033Z,46.29
2022-09-18T03:21:25.886Z,46.06
2022-09-18T03:21:57.278Z,46.21
2022-09-18T03:22:28.676Z,45.89
2022-09-18T03:23:00.086Z,46.15
2022-09-18T03:23:31.503Z,46.06
2022-09-18T03:24:02.923Z,46.04
2022-09-18T03:24:34.383Z,46.04
2022-09-18T03:25:05.762Z,46.15
2022-09-18T03:25:37.169Z,45.97
2022-09-18T03:26:08.550Z,46.17
2022-09-18T03:26:40.003Z,46.18
2022-09-18T03:27:11.386Z,46.15
2022-09-18T03:27:42.787Z,46.33
2022-09-18T03:28:14.185Z,46.58
2022-09-18T03:28:45.573Z,45.97
2022-09-18T03:29:16.952Z,46.18
2022-09-18T03:29:48.346Z,46.16
2022-09-18T03:30:19.729Z,45.91
2022-09-18T03:30:51.115Z,45.83
2022-09-18T03:31:22.610Z,46.16
2022-09-18T03:31:54.273Z,45.98
2022-09-18T03:32:25.695Z,46.14
2022-09-18T03:32:57.090Z,46.24
2022-09-18T03:33:28.473Z,46.02
2022-09-18T03:33:59.852Z,46.18
2022-09-18T03:34:31.255Z,45.98
2022-09-18T03:35:02.654Z,45.86
2022-09-18T03:35:34.051Z,45.81
2022-09-18T03:36:05.441Z,46.27
2022-09-18T03:36:36.823Z,46.08
2022-09-18T03:37:08.348Z,46.21
2022-09-18T03:37:39.742Z,45.94
2022-09-18T03:38:11.119Z,46.24
2022-09-18T03:38:42.502Z,46.35
2022-09-18T03:39:16.141Z,46.02
2022-09-18T03:39:47.748Z,45.85
2022-09-18T03:40:19.273Z,46.27
2022-09-18T03:40:50.708Z,45.88
2022-09-18T03:41:22.127Z,45.95
2022-09-18T03:41:53.536Z,46.04
2022-09-18T03:42:25.072Z,46.26
2022-09-18T03:42:56.448Z,46.48
2022-09-18T03:43:27.831Z,46.05
2022-09-18T03:43:59.227Z,45.96
2022-09-18T03:44:30.608Z,46.44
2022-09-18T03:45:01.996Z,46.05
2022-09-18T03:45:33.380Z,46.08
2022-09-18T03:46:04.810Z,46.38
2022-09-18T03:46:36.380Z,46.17
2022-09-18T03:47:07.831Z,46.07
2022-09-18T03:47:39.331Z,46.35
2022-09-18T03:48:10.712Z,45.94
2022-09-18T03:48:42.095Z,46.49
2022-09-18T03:49:13.499Z,45.57
2022-09-18T03:49:44.877Z,46.24
2022-09-18T03:50:16.281Z,45.90
2022-09-18T03:50:47.673Z,45.93
2022-09-18T03:51:19.060Z,46.31
2022-09-18T03:51:50.463Z,46.13
2022-09-18T03:52:21.857Z,46.16
2022-09-18T03:52:53.280Z,46.38
2022-09-18T03:53:24.669Z,46.00
2022-09-18T03:53:56.060Z,46.32
2022-09-18T03:54:27.455Z,46.32
2022-09-18T03:54:58.848Z,46.26
2022-09-18T03:55:30.243Z,46.04
2022-09-18T03:56:01.647Z,46.12
2022-09-18T03:56:33.035Z,45.94
2022-09-18T03:57:04.432Z,46.28
2022-09-18T03:57:35.915Z,45.84
2022-09-18T03:58:07.325Z,46.16
2022-09-18T03:58:38.710Z,45.94
2022-09-18T03:59:10.095Z,46.37
2022-09-18T03:59:41.492Z,46.16
2022-09-18T04:00:12.871Z,46.36
2022-09-18T04:00:44.280Z,46.23
2022-09-18T04:01:15.668Z,45.94
2022-09-18T04:01:47.089Z,46.30
2022-09-18T04:02:18.500Z,46.14
2022-09-18T04:02:50.004Z,46.00
2022-09-18T04:03:21.465Z,45.95
2022-09-18T04:03:52.848Z,46.24
2022-09-18T04:04:24.249Z,46.37
2022-09-18T04:04:55.639Z,46.42
2022-09-18T04:05:27.026Z,46.44
2022-09-18T04:05:58.428Z,46.57
2022-09-18T04:06:29.808Z,46.35
2022-09-18T04:07:01.187Z,46.14
2022-09-18T04:07:32.567Z,46.25
2022-09-18T04:08:04.067Z,46.46
2022-09-18T04:08:35.452Z,46.11
2022-09-18T04:09:06.868Z,46.29
2022-09-18T04:09:38.271Z,46.01
2022-09-18T04:10:09.663Z,46.35
2022-09-18T04:10:41.047Z,46.22
2022-09-18T04:11:12.446Z,46.29
2022-09-18T04:11:43.843Z,45.69
2022-09-18T04:12:15.240Z,46.36
2022-09-18T04:12:46.635Z,45.99
2022-09-18T04:13:18.104Z,46.30
2022-09-18T04:13:49.489Z,45.86
2022-09-18T04:14:20.877Z,46.23
2022-09-18T04:14:52.272Z,46.34
2022-09-18T04:15:23.695Z,46.10
2022-09-18T04:15:55.132Z,46.08
2022-09-18T04:16:26.580Z,45.79
2022-09-18T04:16:58.033Z,46.23
2022-09-18T04:17:29.419Z,46.42
2022-09-18T04:18:00.814Z,46.35
2022-09-18T04:18:32.359Z,46.12
2022-09-18T04:19:04.012Z,45.90
2022-09-18T04:19:35.404Z,46.26
2022-09-18T04:20:06.807Z,46.33
2022-09-18T04:20:38.190Z,46.17
2022-09-18T04:21:09.571Z,46.29
2022-09-18T04:21:40.966Z,46.00
2022-09-18T04:22:12.351Z,46.35
2022-09-18T04:22:43.858Z,46.06
2022-09-18T04:23:15.252Z,45.93
2022-09-18T04:23:46.708Z,46.36
2022-09-18T04:24:18.097Z,46.08
2022-09-18T04:24:49.503Z,45.94
2022-09-18T04:25:20.900Z,45.96
2022-09-18T04:25:52.304Z,46.27
2022-09-18T04:26:23.688Z,46.03
2022-09-18T04:26:55.087Z,46.33
2022-09-18T04:27:26.470Z,46.49
2022-09-18T04:27:57.871Z,46.21
2022-09-18T04:28:29.248Z,46.71
2022-09-18T04:29:00.684Z,46.41
2022-09-18T04:29:32.059Z,45.97
2022-09-18T04:30:03.447Z,46.44
2022-09-18T04:30:34.848Z,46.01
2022-09-18T04:31:06.264Z,45.83
2022-09-18T04:31:37.792Z,46.13
2022-09-18T04:32:09.232Z,46.04
2022-09-18T04:32:40.628Z,45.95
2022-09-18T04:33:12.026Z,46.10
2022-09-18T04:33:43.423Z,46.15
2022-09-18T04:34:14.934Z,46.22
2022-09-18T04:34:46.335Z,46.09
2022-09-18T04:35:17.725Z,46.37
2022-09-18T04:35:49.109Z,46.23
2022-09-18T04:36:20.500Z,45.91
2022-09-18T04:36:51.900Z,46.06
2022-09-18T04:37:23.282Z,46.44
2022-09-18T04:37:54.774Z,46.66
2022-09-18T04:38:26.176Z,46.33
2022-09-18T04:38:57.560Z,45.98
2022-09-18T04:39:29.009Z,46.38
2022-09-18T04:40:00.505Z,46.03
2022-09-18T04:40:32.087Z,46.29
2022-09-18T04:41:03.510Z,46.08
2022-09-18T04:41:34.913Z,46.15
2022-09-18T04:42:06.317Z,46.12
2022-09-18T04:42:37.699Z,46.06
2022-09-18T04:43:09.082Z,45.74
2022-09-18T04:43:40.474Z,46.00
2022-09-18T04:44:11.853Z,46.35
2022-09-18T04:44:43.354Z,46.19
2022-09-18T04:45:14.757Z,46.03
2022-09-18T04:45:46.160Z,46.29
2022-09-18T04:46:17.581Z,46.18
2022-09-18T04:46:48.995Z,45.80
2022-09-18T04:47:20.427Z,46.21
2022-09-18T04:47:51.807Z,46.15
2022-09-18T04:48:23.188Z,45.91
2022-09-18T04:48:54.593Z,45.96
2022-09-18T04:49:26.000Z,46.16
2022-09-18T04:49:57.552Z,46.63
2022-09-18T04:50:28.932Z,46.15
2022-09-18T04:51:00.323Z,46.32
2022-09-18T04:51:31.733Z,46.26
2022-09-18T04:52:03.120Z,45.92
2022-09-18T04:52:34.517Z,46.28
2022-09-18T04:53:05.923Z,46.04
2022-09-18T04:53:37.305Z,46.15
2022-09-18T04:54:08.685Z,45.85
2022-09-18T04:54:40.100Z,46.17
2022-09-18T04:55:11.586Z,46.06
2022-09-18T04:55:42.970Z,46.55
2022-09-18T04:56:14.360Z,46.13
2022-09-18T04:56:45.748Z,46.05
2022-09-18T04:57:17.139Z,46.32
2022-09-18T04:57:52.434Z,46.31
2022-09-18T04:58:25.848Z,46.42
2022-09-18T04:58:57.231Z,45.98
2022-09-18T04:59:28.607Z,46.40
2022-09-18T04:59:59.989Z,46.39
2022-09-18T05:00:31.502Z,46.09
2022-09-18T05:01:02.996Z,46.24
2022-09-18T05:01:34.460Z,46.42
2022-09-18T05:02:05.955Z,46.60
2022-09-18T05:02:37.400Z,45.97
2022-09-18T05:03:08.786Z,46.19
2022-09-18T05:03:40.168Z,46.60
2022-09-18T05:04:11.573Z,46.36
2022-09-18T05:04:42.975Z,46.00
2022-09-18T05:05:14.430Z,45.85
2022-09-18T05:05:45.813Z,46.24
2022-09-18T05:06:17.206Z,46.03
2022-09-18T05:06:48.604Z,46.00
2022-09-18T05:07:20.015Z,46.55
2022-09-18T05:07:51.427Z,46.03
2022-09-18T05:08:22.839Z,46.20
2022-09-18T05:08:54.247Z,46.21
2022-09-18T05:09:25.624Z,45.93
2022-09-18T05:09:57.004Z,46.46
2022-09-18T05:10:28.489Z,46.21
2022-09-18T05:10:59.882Z,46.57
2022-09-18T05:11:31.288Z,46.10
2022-09-18T05:12:02.678Z,46.53
2022-09-18T05:12:34.063Z,45.89
2022-09-18T05:13:05.470Z,46.27
2022-09-18T05:13:36.857Z,46.11
2022-09-18T05:14:08.259Z,46.41
2022-09-18T05:14:39.639Z,46.01
2022-09-18T05:15:11.044Z,46.30
2022-09-18T05:15:42.477Z,46.25
2022-09-18T05:16:14.001Z,46.14
2022-09-18T05:16:45.452Z,46.60
2022-09-18T05:17:16.853Z,46.37
2022-09-18T05:17:48.251Z,46.48
2022-09-18T05:18:19.643Z,46.40
2022-09-18T05:18:51.088Z,46.06
2022-09-18T05:19:22.530Z,46.21
2022-09-18T05:19:53.916Z,46.19
2022-09-18T05:20:25.316Z,46.13
2022-09-18T05:20:56.714Z,46.49
2022-09-18T05:21:28.097Z,46.30
2022-09-18T05:21:59.523Z,46.62
2022-09-18T05:22:30.903Z,46.18
2022-09-18T05:23:02.283Z,46.07
2022-09-18T05:23:33.669Z,46.25
2022-09-18T05:24:05.047Z,46.31
2022-09-18T05:24:36.457Z,46.05
2022-09-18T05:25:07.836Z,46.11
2022-09-18T05:25:39.220Z,46.09
2022-09-18T05:26:10.805Z,46.50
2022-09-18T05:26:42.272Z,46.32
2022-09-18T05:27:13.674Z,46.22
2022-09-18T05:27:45.059Z,46.01
2022-09-18T05:28:16.458Z,46.38
2022-09-18T05:28:47.838Z,46.25
2022-09-18T05:29:19.226Z,46.43
2022-09-18T05:29:50.612Z,46.10
2022-09-18T05:30:21.987Z,46.28
2022-09-18T05:30:53.372Z,46.19
2022-09-18T05:31:24.898Z,46.53
2022-09-18T05:31:56.368Z,46.36
2022-09-18T05:32:27.771Z,46.05
2022-09-18T05:32:59.417Z,46.11
2022-09-18T05:33:30.842Z,46.25
2022-09-18T05:34:02.245Z,46.46
2022-09-18T05:34:33.630Z,46.43
2022-09-18T05:35:05.034Z,46.50
2022-09-18T05:35:36.453Z,46.47
2022-09-18T05:36:07.867Z,46.38
2022-09-18T05:36:39.380Z,46.44
2022-09-18T05:37:10.790Z,46.42
2022-09-18T05:37:42.169Z,46.35
2022-09-18T05:38:13.590Z,46.52
2022-09-18T05:38:45.006Z,46.06
2022-09-18T05:39:17.720Z,46.19
2022-09-18T05:39:49.343Z,46.21
2022-09-18T05:40:20.771Z,46.24
2022-09-18T05:40:52.175Z,45.92
2022-09-18T05:41:23.562Z,46.29
2022-09-18T05:41:55.072Z,46.15
2022-09-18T05:42:26.471Z,46.41
2022-09-18T05:42:57.856Z,46.14
2022-09-18T05:43:29.288Z,46.27
2022-09-18T05:44:00.695Z,46.08
2022-09-18T05:44:32.095Z,46.26
2022-09-18T05:45:03.487Z,45.91
2022-09-18T05:45:34.893Z,46.16
2022-09-18T05:46:06.314Z,46.11
2022-09-18T05:46:37.864Z,45.91
2022-09-18T05:47:09.264Z,45.89
2022-09-18T05:47:40.646Z,46.41
2022-09-18T05:48:12.048Z,46.19
2022-09-18T05:48:43.427Z,46.45
2022-09-18T05:49:14.812Z,46.08
2022-09-18T05:49:46.207Z,46.25
2022-09-18T05:50:17.770Z,45.84
2022-09-18T05:50:49.242Z,46.18
2022-09-18T05:51:20.732Z,46.07
2022-09-18T05:51:52.136Z,46.36
2022-09-18T05:52:23.516Z,46.15
2022-09-18T05:52:54.917Z,46.20
2022-09-18T05:53:26.295Z,46.16
2022-09-18T05:53:57.696Z,46.41
2022-09-18T05:54:29.101Z,45.92
2022-09-18T05:55:00.518Z,46.36
2022-09-18T05:55:32.245Z,46.23
2022-09-18T05:56:03.734Z,46.25
2022-09-18T05:56:35.203Z,45.87
2022-09-18T05:57:06.579Z,45.88
2022-09-18T05:57:37.975Z,46.16
2022-09-18T05:58:09.374Z,46.32
2022-09-18T05:58:40.774Z,45.92
2022-09-18T05:59:12.202Z,46.29
2022-09-18T05:59:43.604Z,46.11
2022-09-18T06:00:14.984Z,46.30
2022-09-18T06:00:46.383Z,46.27
2022-09-18T06:01:17.789Z,45.78
2022-09-18T06:01:49.308Z,46.37
2022-09-18T06:02:20.766Z,46.22
2022-09-18T06:02:52.302Z,45.94
2022-09-18T06:03:23.797Z,46.00
2022-09-18T06:03:55.233Z,45.93
2022-09-18T06:04:26.612Z,45.85
2022-09-18T06:04:57.997Z,45.78
2022-09-18T06:05:29.390Z,45.93
2022-09-18T06:06:00.787Z,46.19
2022-09-18T06:06:32.219Z,45.60
2022-09-18T06:07:03.595Z,45.77
2022-09-18T06:07:34.996Z,46.37
2022-09-18T06:08:06.398Z,45.97
2022-09-18T06:08:37.790Z,46.02
2022-09-18T06:09:09.182Z,46.50
2022-09-18T06:09:40.564Z,45.77
2022-09-18T06:10:11.991Z,45.92
2022-09-18T06:10:43.415Z,46.37
2022-09-18T06:11:14.919Z,45.76
2022-09-18T06:11:46.298Z,45.83
2022-09-18T06:12:17.683Z,45.71
2022-09-18T06:12:49.087Z,45.63
2022-09-18T06:13:20.495Z,45.71
2022-09-18T06:13:51.905Z,46.25
2022-09-18T06:14:23.360Z,45.67
2022-09-18T06:14:54.758Z,45.71
2022-09-18T06:15:26.139Z,45.68
2022-09-18T06:15:57.569Z,46.22
2022-09-18T06:16:29.204Z,45.83
2022-09-18T06:17:00.658Z,45.83
2022-09-18T06:17:32.041Z,46.28
2022-09-18T06:18:03.444Z,46.12
2022-09-18T06:18:34.942Z,45.72
2022-09-18T06:19:06.327Z,45.40
2022-09-18T06:19:37.719Z,45.77
2022-09-18T06:20:09.118Z,45.70
2022-09-18T06:20:40.496Z,45.76
2022-09-18T06:21:11.881Z,46.08
2022-09-18T06:21:43.351Z,45.80
2022-09-18T06:22:14.753Z,45.72
2022-09-18T06:22:46.144Z,46.33
2022-09-18T06:23:17.546Z,45.67
2022-09-18T06:23:48.949Z,45.86
2022-09-18T06:24:20.335Z,45.69
2022-09-18T06:24:51.719Z,45.68
2022-09-18T06:25:23.107Z,45.99
2022-09-18T06:25:54.500Z,45.64
2022-09-18T06:26:25.885Z,46.15
2022-09-18T06:26:57.425Z,45.60
2022-09-18T06:27:28.820Z,45.63
2022-09-18T06:28:00.318Z,45.82
2022-09-18T06:28:31.786Z,45.52
2022-09-18T06:29:03.187Z,45.99
2022-09-18T06:29:34.564Z,45.81
2022-09-18T06:30:05.963Z,45.82
2022-09-18T06:30:37.390Z,45.98
2022-09-18T06:31:08.815Z,45.97
2022-09-18T06:31:40.289Z,45.39
2022-09-18T06:32:11.721Z,45.88
2022-09-18T06:32:43.128Z,45.36
2022-09-18T06:33:14.523Z,45.71
2022-09-18T06:33:45.902Z,45.55
2022-09-18T06:34:17.279Z,45.70
2022-09-18T06:34:48.684Z,45.66
2022-09-18T06:35:20.065Z,45.54
2022-09-18T06:35:51.443Z,45.65
2022-09-18T06:36:22.845Z,45.59
2022-09-18T06:36:54.249Z,45.73
2022-09-18T06:37:25.734Z,45.72
2022-09-18T06:37:57.123Z,45.53
2022-09-18T06:38:28.511Z,45.69
2022-09-18T06:38:59.907Z,45.55
2022-09-18T06:39:31.293Z,45.56
2022-09-18T06:40:02.792Z,45.61
2022-09-18T06:40:34.384Z,45.61
2022-09-18T06:41:05.833Z,45.93
2022-09-18T06:41:37.220Z,45.56
2022-09-18T06:42:08.596Z,45.69
2022-09-18T06:42:45.298Z,45.63
2022-09-18T06:43:17.388Z,45.57
2022-09-18T06:43:48.797Z,45.90
2022-09-18T06:44:20.176Z,45.75
2022-09-18T06:44:51.582Z,45.92
2022-09-18T06:45:22.991Z,45.79